Time;durP1;ratioP1;P1;durP2;ratioP2;P2;SDS_P1;SDS_P2;PMS_P1;PMS_P2;Temp;Humidity;BMP_temperature;BMP_pressure;BME280_temperature;BME280_humidity;BME280_pressure;Samples;Min_cycle;Max_cycle;Signal;HPM_P1;HPM_P2
2023/07/04 00:00:29;;;;;;;6.55;1.15;;;;;;;-146.25;100.00;52114.75;2096724;28;20030;-69
2023/07/04 00:01:31;;;;;;;6.38;1.15;;;;;;;-146.25;100.00;52120.84;2094813;28;36848;-72
2023/07/04 00:02:33;;;;;;;4.72;1.00;;;;;;;-146.25;100.00;52112.72;2094899;28;35527;-71
2023/07/04 00:03:38;;;;;;;2.50;1.15;;;;;;;-146.25;100.00;52183.69;2096114;28;34276;-71
2023/07/04 00:04:42;;;;;;;2.88;0.88;;;;;;;-146.25;100.00;52108.66;2097755;28;20045;-68
2023/07/04 00:05:48;;;;;;;4.75;0.90;;;;;;;-146.25;100.00;52133.00;2104360;28;37907;-70
2023/07/04 00:06:51;;;;;;;4.57;0.82;;;;;;;-146.25;100.00;52137.06;2096753;28;34683;-70
2023/07/04 00:07:52;;;;;;;2.65;1.00;;;;;;;-146.25;100.00;52104.63;2096390;28;35589;-69
2023/07/04 00:08:57;;;;;;;3.75;1.30;;;;;;;-146.25;100.00;52124.91;2097197;28;31626;-71
2023/07/04 00:10:03;;;;;;;3.35;0.73;;;;;;;-146.25;100.00;52120.84;2097597;28;20077;-71
2023/07/04 00:11:07;;;;;;;5.80;1.02;;;;;;;-146.25;100.00;52100.56;2097228;28;37340;-70
2023/07/04 00:12:11;;;;;;;5.15;1.38;;;;;;;-146.25;100.00;52074.22;2096949;28;33520;-70
2023/07/04 00:13:15;;;;;;;5.00;1.20;;;;;;;-146.25;100.00;52108.66;2096882;28;33159;-70
2023/07/04 00:14:17;;;;;;;5.47;1.23;;;;;;;-146.25;100.00;52141.13;2097069;28;33631;-71
2023/07/04 00:15:19;;;;;;;5.25;1.10;;;;;;;-146.25;100.00;52126.91;2097173;28;20104;-68
2023/07/04 00:16:21;;;;;;;5.93;1.45;;;;;;;-146.25;100.00;52128.94;2093066;28;36164;-69
2023/07/04 00:17:23;;;;;;;4.35;1.10;;;;;;;-146.25;100.00;52133.00;2096561;28;33207;-71
2023/07/04 00:18:27;;;;;;;5.60;1.30;;;;;;;-146.25;100.00;52128.94;2096535;28;34350;-71
2023/07/04 00:19:31;;;;;;;3.50;1.10;;;;;;;-146.25;100.00;52100.56;2097216;28;35867;-71
2023/07/04 00:20:33;;;;;;;4.07;1.13;;;;;;;-146.25;100.00;52094.47;2096420;28;36336;-69
2023/07/04 00:21:39;;;;;;;3.38;0.85;;;;;;;-146.25;100.00;52159.34;2096758;28;38104;-70
2023/07/04 00:22:41;;;;;;;5.13;1.00;;;;;;;-146.25;100.00;52155.31;2097164;28;33967;-69
2023/07/04 00:23:46;;;;;;;3.78;1.23;;;;;;;-146.25;100.00;52120.84;2097457;28;34065;-71
2023/07/04 00:24:49;;;;;;;6.72;1.20;;;;;;;-146.25;100.00;52151.25;2096596;28;30166;-70
2023/07/04 00:25:55;;;;;;;4.25;1.25;;;;;;;-146.25;100.00;52120.84;2097536;28;20049;-70
2023/07/04 00:26:57;;;;;;;5.38;1.13;;;;;;;-146.25;100.00;52096.50;2096803;28;38404;-70
2023/07/04 00:28:02;;;;;;;4.00;0.93;;;;;;;-146.25;100.00;52090.44;2097681;28;20034;-70
2023/07/04 00:29:04;;;;;;;5.65;1.25;;;;;;;-146.25;100.00;52149.22;2095978;28;28792;-70
2023/07/04 00:30:10;;;;;;;4.20;1.27;;;;;;;-146.25;100.00;52108.66;2089093;28;20184;-70
2023/07/04 00:31:17;;;;;;;4.28;0.90;;;;;;;-146.25;100.00;52155.31;2088142;28;25521;-69
2023/07/04 00:32:19;;;;;;;4.30;1.23;;;;;;;-146.25;100.00;52137.06;2089464;28;29728;-71
2023/07/04 00:33:27;;;;;;;5.63;1.25;;;;;;;-146.25;100.00;52133.00;2096076;28;36288;-70
2023/07/04 00:34:29;;;;;;;4.13;1.33;;;;;;;-146.25;100.00;52114.75;2087924;28;30556;-70
2023/07/04 00:35:31;;;;;;;3.72;1.20;;;;;;;-146.25;100.00;52100.56;2088565;28;33863;-71
2023/07/04 00:36:37;;;;;;;4.78;1.35;;;;;;;-146.25;100.00;52153.28;2105455;28;20159;-71
2023/07/04 00:37:39;;;;;;;7.10;1.70;;;;;;;-146.25;100.00;52104.63;2096443;28;31361;-71
2023/07/04 00:38:41;;;;;;;7.78;2.05;;;;;;;-146.25;100.00;52124.91;2097088;28;24955;-70
2023/07/04 00:39:43;;;;;;;7.20;1.85;;;;;;;-146.25;100.00;52141.13;2096539;28;20795;-70
2023/07/04 00:40:45;;;;;;;5.05;1.60;;;;;;;-146.25;100.00;52124.91;2096417;28;27973;-69
2023/07/04 00:41:49;;;;;;;5.10;1.50;;;;;;;-146.25;100.00;52126.91;2096673;28;20865;-71
2023/07/04 00:42:55;;;;;;;3.85;1.33;;;;;;;-146.25;100.00;52112.72;2105099;28;21016;-70
2023/07/04 00:44:13;;;;;;;4.47;1.50;;;;;;;-146.25;100.00;52118.81;2096332;28;32998;-70
2023/07/04 00:45:21;;;;;;;5.65;2.08;;;;;;;-146.25;100.00;52163.41;2090754;28;20165;-70
2023/07/04 00:46:37;;;;;;;7.07;2.38;;;;;;;-146.25;100.00;52128.94;2095685;28;28668;-70
2023/07/04 00:47:46;;;;;;;5.45;1.83;;;;;;;-146.25;100.00;52137.06;2071171;28;31195;-70
2023/07/04 00:48:48;;;;;;;7.30;1.58;;;;;;;-146.25;100.00;52165.44;2075966;28;27545;-71
2023/07/04 00:49:57;;;;;;;9.18;1.77;;;;;;;-146.25;100.00;52128.94;2087910;28;33282;-70
2023/07/04 00:51:04;;;;;;;7.63;1.92;;;;;;;-146.25;100.00;52090.44;2082028;28;20140;-71
2023/07/04 00:52:23;;;;;;;5.35;1.60;;;;;;;-146.25;100.00;52108.66;2088688;28;20042;-70
2023/07/04 00:53:25;;;;;;;4.80;1.77;;;;;;;-146.25;100.00;52124.91;2079968;28;29200;-70
2023/07/04 00:54:35;;;;;;;5.57;1.77;;;;;;;-146.25;100.00;52165.44;2081224;28;30601;-71
2023/07/04 00:55:43;;;;;;;8.48;1.80;;;;;;;-146.25;100.00;52120.84;2087841;28;29503;-70
2023/07/04 00:56:45;;;;;;;7.97;1.83;;;;;;;-146.25;100.00;52159.34;2089345;28;25615;-71
2023/07/04 00:57:47;;;;;;;6.88;2.03;;;;;;;-146.25;100.00;52159.34;2087696;28;36267;-70
2023/07/04 00:58:49;;;;;;;9.25;2.08;;;;;;;-146.25;100.00;52126.91;2072260;28;20050;-70
2023/07/04 00:59:58;;;;;;;6.07;1.75;;;;;;;-146.25;100.00;52135.03;2080408;28;20145;-70
2023/07/04 01:00:59;;;;;;;6.55;1.80;;;;;;;-146.25;100.00;52147.19;2088017;28;20989;-70
2023/07/04 01:02:02;;;;;;;8.05;2.22;;;;;;;-146.25;100.00;52155.31;2089497;28;20041;-69
2023/07/04 01:03:20;;;;;;;6.45;1.92;;;;;;;-146.25;100.00;52100.56;2096115;28;36856;-70
2023/07/04 01:04:23;;;;;;;6.65;2.15;;;;;;;-146.25;100.00;52122.88;2087822;28;27943;-70
2023/07/04 01:06:06;;;;;;;5.85;2.10;;;;;;;-146.25;100.00;52120.84;2081584;28;22977;-70
2023/07/04 01:07:48;;;;;;;6.07;2.35;;;;;;;-146.25;100.00;52114.75;2085740;28;24952;-70
2023/07/04 01:08:59;;;;;;;5.95;1.92;;;;;;;-146.25;100.00;52143.13;2088718;28;25423;-70
2023/07/04 01:10:33;;;;;;;5.82;2.58;;;;;;;-146.25;100.00;52133.00;2088603;28;20030;-70
2023/07/04 01:11:44;;;;;;;8.90;2.90;;;;;;;-146.25;100.00;52096.50;2093742;28;31930;-69
2023/07/04 01:12:46;;;;;;;;;;;;;;;-146.25;100.00;52126.91;2088410;28;29804;-70
2023/07/04 01:13:50;;;;;;;10.85;2.40;;;;;;;-146.25;100.00;52149.22;2088912;28;20774;-71
2023/07/04 01:14:53;;;;;;;9.00;2.50;;;;;;;-146.25;100.00;52100.56;2087368;28;32609;-70
2023/07/04 01:15:55;;;;;;;9.50;2.83;;;;;;;-146.25;100.00;52110.69;2088413;28;32084;-71
2023/07/04 01:16:59;;;;;;;7.78;2.80;;;;;;;-146.25;100.00;52122.88;2096523;28;27809;-70
2023/07/04 01:18:02;;;;;;;9.25;2.90;;;;;;;-146.25;100.00;52112.72;2097599;28;20238;-70
2023/07/04 01:19:04;;;;;;;10.23;3.05;;;;;;;-146.25;100.00;52139.09;2095551;28;35356;-71
2023/07/04 01:20:15;;;;;;;12.82;3.35;;;;;;;-146.25;100.00;52116.78;2096759;28;28194;-70
2023/07/04 01:21:21;;;;;;;8.73;3.20;;;;;;;-146.25;100.00;52102.59;2104576;28;32468;-70
2023/07/04 01:22:48;;;;;;;9.15;3.40;;;;;;;-146.25;100.00;52153.28;2105124;28;20187;-68
2023/07/04 01:24:19;;;;;;;9.95;3.20;;;;;;;-146.25;100.00;52118.81;2104506;28;32023;-71
2023/07/04 01:25:30;;;;;;;7.63;3.53;;;;;;;-146.25;100.00;52118.81;2104751;28;30499;-69
2023/07/04 01:26:42;;;;;;;11.93;3.60;;;;;;;-146.25;100.00;52128.94;2102001;28;30322;-71
2023/07/04 01:27:51;;;;;;;9.98;3.45;;;;;;;-146.25;100.00;52122.88;2104858;28;20912;-70
2023/07/04 01:28:55;;;;;;;10.82;3.65;;;;;;;-146.25;100.00;52128.94;2105265;28;29602;-71
2023/07/04 01:30:04;;;;;;;11.15;3.90;;;;;;;-146.25;100.00;52128.94;2104274;28;20484;-70
2023/07/04 01:31:16;;;;;;;10.50;3.75;;;;;;;-146.25;100.00;52124.91;2103732;28;31891;-71
2023/07/04 01:32:21;;;;;;;7.93;3.38;;;;;;;-146.25;100.00;52141.13;2096115;28;31044;-71
2023/07/04 01:33:24;;;;;;;11.70;3.78;;;;;;;-146.25;100.00;52116.78;2096676;28;20860;-71
2023/07/04 01:34:26;;;;;;;7.38;3.67;;;;;;;-146.25;100.00;52133.00;2096572;28;21689;-69
2023/07/04 01:35:33;;;;;;;11.80;3.83;;;;;;;-146.25;100.00;52122.88;2096032;28;26990;-71
2023/07/04 01:36:38;;;;;;;9.88;4.18;;;;;;;-146.25;100.00;52133.00;2097388;28;22814;-71
2023/07/04 01:37:42;;;;;;;8.57;3.85;;;;;;;-146.25;100.00;52149.22;2096890;28;20861;-71
2023/07/04 01:38:47;;;;;;;11.77;4.15;;;;;;;-146.25;100.00;52133.00;2096979;28;20168;-72
2023/07/04 01:39:49;;;;;;;11.23;3.90;;;;;;;-146.25;100.00;52128.94;2095933;28;25952;-71
2023/07/04 01:40:51;;;;;;;11.85;3.92;;;;;;;-146.25;100.00;52157.34;2088029;28;28263;-71
2023/07/04 01:41:56;;;;;;;7.22;4.18;;;;;;;-146.25;100.00;52149.22;2095598;28;32599;-71
2023/07/04 01:42:57;;;;;;;10.27;4.38;;;;;;;-146.25;100.00;52094.47;2096715;28;26803;-71
2023/07/04 01:44:06;;;;;;;13.40;4.03;;;;;;;-146.25;100.00;52128.94;2096651;28;25669;-71
2023/07/04 01:45:09;;;;;;;12.35;4.40;;;;;;;-146.25;100.00;52167.47;2097158;28;25065;-71
2023/07/04 01:46:13;;;;;;;12.32;4.88;;;;;;;-146.25;100.00;52139.09;2096512;28;21697;-71
2023/07/04 01:47:15;;;;;;;13.40;4.75;;;;;;;-146.25;100.00;52098.53;2097491;28;20088;-71
2023/07/04 01:48:18;;;;;;;13.82;4.38;;;;;;;-146.25;100.00;52104.63;2096365;28;20600;-71
2023/07/04 01:49:20;;;;;;;12.13;4.60;;;;;;;-146.25;100.00;52165.44;2096375;28;32416;-71
2023/07/04 01:50:24;;;;;;;10.30;4.75;;;;;;;-146.25;100.00;52177.59;2096535;28;30224;-71
2023/07/04 01:51:37;;;;;;;11.30;5.45;;;;;;;-146.25;100.00;52106.66;2105127;28;25978;-71
2023/07/04 01:52:42;;;;;;;13.73;4.78;;;;;;;-146.25;100.00;52153.28;2103320;28;20919;-70
2023/07/04 01:53:44;;;;;;;14.50;4.95;;;;;;;-146.25;100.00;52177.59;2104447;28;20969;-71
2023/07/04 01:54:46;;;;;;;11.48;4.65;;;;;;;-146.25;100.00;52163.41;2095970;28;31513;-72
2023/07/04 01:55:48;;;;;;;14.20;5.20;;;;;;;-146.25;100.00;52116.78;2088137;28;20111;-71
2023/07/04 01:56:52;;;;;;;13.20;5.43;;;;;;;-146.25;100.00;52124.91;2096670;28;20072;-71
2023/07/04 01:57:55;;;;;;;14.55;5.32;;;;;;;-146.25;100.00;52157.34;2096018;28;20091;-71
2023/07/04 01:58:56;;;;;;;13.07;4.80;;;;;;;-146.25;100.00;52130.97;2096390;28;20056;-71
2023/07/04 01:59:58;;;;;;;14.50;5.20;;;;;;;-146.25;100.00;52096.50;2096706;28;20159;-71
2023/07/04 02:01:00;;;;;;;15.77;5.43;;;;;;;-146.25;100.00;52106.66;2102670;28;20041;-70
2023/07/04 02:02:03;;;;;;;14.95;5.15;;;;;;;-146.25;100.00;52133.00;2105406;28;20670;-71
2023/07/04 02:03:05;;;;;;;11.32;4.78;;;;;;;-146.25;100.00;52155.31;2104389;28;20048;-72
2023/07/04 02:04:07;;;;;;;13.55;5.13;;;;;;;-146.25;100.00;52169.50;2104673;28;30285;-71
2023/07/04 02:05:09;;;;;;;13.15;5.35;;;;;;;-146.25;100.00;52130.97;2104484;28;20093;-70
2023/07/04 02:06:11;;;;;;;10.63;5.25;;;;;;;-146.25;100.00;52137.06;2104941;28;20145;-70
2023/07/04 02:07:12;;;;;;;13.95;5.53;;;;;;;-146.25;100.00;52120.84;2104882;28;27156;-70
2023/07/04 02:08:15;;;;;;;14.80;5.50;;;;;;;-146.25;100.00;52133.00;2105160;28;20828;-72
2023/07/04 02:09:17;;;;;;;12.50;4.70;;;;;;;-146.25;100.00;52122.88;2105550;28;20040;-72
2023/07/04 02:10:20;;;;;;;13.65;4.80;;;;;;;-146.25;100.00;52163.41;2105647;28;20151;-71
2023/07/04 02:11:22;;;;;;;13.45;5.28;;;;;;;-146.25;100.00;52163.41;2105286;28;20924;-71
2023/07/04 02:12:27;;;;;;;17.08;5.68;;;;;;;-146.25;100.00;52141.13;2104181;28;20044;-71
2023/07/04 02:13:29;;;;;;;13.88;5.22;;;;;;;-146.25;100.00;52118.81;2096310;28;34362;-71
2023/07/04 02:14:31;;;;;;;15.88;5.20;;;;;;;-146.25;100.00;52141.13;2104890;28;20044;-71
2023/07/04 02:15:33;;;;;;;20.75;6.50;;;;;;;-146.25;100.00;52114.75;2104988;28;25446;-72
2023/07/04 02:16:34;;;;;;;15.15;6.75;;;;;;;-146.25;100.00;52137.06;2098900;28;20053;-71
2023/07/04 02:17:40;;;;;;;18.35;6.60;;;;;;;-146.25;100.00;52106.66;2104188;28;20810;-72
2023/07/04 02:18:46;;;;;;;16.42;6.32;;;;;;;-146.25;100.00;52133.00;2104367;28;29668;-71
2023/07/04 02:19:51;;;;;;;13.23;6.40;;;;;;;-146.25;100.00;52149.22;2103349;28;30880;-72
2023/07/04 02:20:53;;;;;;;14.40;6.75;;;;;;;-146.25;100.00;52098.53;2096807;28;26799;-71
2023/07/04 02:21:55;;;;;;;14.48;6.18;;;;;;;-146.25;100.00;52147.19;2103902;28;25844;-71
2023/07/04 02:22:58;;;;;;;12.90;5.50;;;;;;;-146.25;100.00;52116.78;2104546;28;20048;-71
2023/07/04 02:24:00;;;;;;;13.95;5.80;;;;;;;-146.25;100.00;52167.47;2096370;28;27533;-72
2023/07/04 02:25:02;;;;;;;16.45;5.82;;;;;;;-146.25;100.00;52128.94;2096754;28;27672;-71
2023/07/04 02:26:06;;;;;;;16.23;5.57;;;;;;;-146.25;100.00;52147.19;2097189;28;20129;-71
2023/07/04 02:27:08;;;;;;;15.98;6.03;;;;;;;-146.25;100.00;52124.91;2096231;28;20924;-69
2023/07/04 02:28:11;;;;;;;16.83;7.13;;;;;;;-146.25;100.00;52149.22;2103926;28;30396;-70
2023/07/04 02:29:16;;;;;;;16.58;6.55;;;;;;;-146.25;100.00;52153.28;2095543;28;28523;-72
2023/07/04 02:30:19;;;;;;;18.63;6.50;;;;;;;-146.25;100.00;52141.13;2096143;28;20033;-71
2023/07/04 02:31:23;;;;;;;17.73;6.25;;;;;;;-146.25;100.00;52122.88;2096756;28;20096;-71
2023/07/04 02:32:25;;;;;;;18.83;6.72;;;;;;;-146.25;100.00;52110.69;2096715;28;20036;-71
2023/07/04 02:33:27;;;;;;;12.93;6.38;;;;;;;-146.25;100.00;52177.59;2096244;28;20176;-71
2023/07/04 02:34:30;;;;;;;15.13;6.13;;;;;;;-146.25;100.00;52139.09;2095940;28;20041;-72
2023/07/04 02:35:32;;;;;;;19.20;6.85;;;;;;;-146.25;100.00;52112.72;2096093;28;20091;-71
2023/07/04 02:36:33;;;;;;;14.60;6.95;;;;;;;-146.25;100.00;52126.91;2096575;28;21016;-72
2023/07/04 02:37:35;;;;;;;18.48;7.05;;;;;;;-146.25;100.00;52149.22;2096192;28;20130;-71
2023/07/04 02:38:41;;;;;;;14.93;7.45;;;;;;;-146.25;100.00;52130.97;2087514;28;20111;-72
2023/07/04 02:39:44;;;;;;;17.50;7.90;;;;;;;-146.25;100.00;52157.34;2088534;28;20123;-71
2023/07/04 02:40:51;;;;;;;16.63;7.05;;;;;;;-146.25;100.00;52086.38;2088119;28;20996;-72
2023/07/04 02:41:53;;;;;;;17.40;7.65;;;;;;;-146.25;100.00;52159.34;2087844;28;20136;-72
2023/07/04 02:42:58;;;;;;;15.73;7.38;;;;;;;-146.25;100.00;52133.00;2096056;28;20064;-72
2023/07/04 02:44:00;;;;;;;20.52;7.53;;;;;;;-146.25;100.00;52149.22;2103896;28;20939;-71
2023/07/04 02:45:08;;;;;;;17.65;7.53;;;;;;;-146.25;100.00;52124.91;2096050;28;20838;-71
2023/07/04 02:46:13;;;;;;;17.58;8.02;;;;;;;-146.25;100.00;52135.03;2097132;28;20079;-71
2023/07/04 02:47:23;;;;;;;25.10;8.93;;;;;;;-146.25;100.00;52169.50;2104732;28;20037;-71
2023/07/04 02:48:25;;;;;;;17.15;7.28;;;;;;;-146.25;100.00;52088.41;2096063;28;20646;-72
2023/07/04 02:49:27;;;;;;;15.32;7.47;;;;;;;-146.25;100.00;52141.13;2096310;28;20191;-72
2023/07/04 02:50:30;;;;;;;22.05;9.02;;;;;;;-146.25;100.00;52137.06;2095974;28;20083;-71
2023/07/04 02:51:34;;;;;;;21.30;8.32;;;;;;;-146.25;100.00;52185.72;2095642;28;26242;-71
2023/07/04 02:52:36;;;;;;;20.52;8.45;;;;;;;-146.25;100.00;52149.22;2096196;28;20045;-72
2023/07/04 02:53:38;;;;;;;23.55;8.02;;;;;;;-146.25;100.00;52143.13;2104367;28;24693;-71
2023/07/04 02:54:40;;;;;;;22.65;9.10;;;;;;;-146.25;100.00;52128.94;2096762;28;20036;-71
2023/07/04 02:55:44;;;;;;;19.48;8.63;;;;;;;-146.25;100.00;52147.19;2104462;28;20194;-71
2023/07/04 02:56:46;;;;;;;23.48;8.68;;;;;;;-146.25;100.00;52153.28;2096409;28;20048;-72
2023/07/04 02:57:48;;;;;;;18.63;8.82;;;;;;;-146.25;100.00;52139.09;2096240;28;20099;-71
2023/07/04 02:58:51;;;;;;;19.83;8.50;;;;;;;-146.25;100.00;52169.50;2096397;28;20045;-71
2023/07/04 02:59:53;;;;;;;16.73;8.63;;;;;;;-146.25;100.00;52169.50;2095496;28;20084;-72
2023/07/04 03:00:55;;;;;;;23.52;8.93;;;;;;;-146.25;100.00;52141.13;2095369;28;20724;-72
2023/07/04 03:01:59;;;;;;;18.95;8.82;;;;;;;-146.25;100.00;52161.38;2103863;28;20056;-72
2023/07/04 03:03:02;;;;;;;25.23;9.45;;;;;;;-146.25;100.00;52137.06;2095578;28;20045;-72
2023/07/04 03:04:05;;;;;;;24.70;10.43;;;;;;;-146.25;100.00;52173.56;2088061;28;20195;-72
2023/07/04 03:05:10;;;;;;;25.63;9.95;;;;;;;-146.25;100.00;52096.50;2096044;28;21059;-71
2023/07/04 03:06:13;;;;;;;27.60;13.15;;;;;;;-146.25;100.00;52141.13;2096020;28;20049;-71
2023/07/04 03:07:15;;;;;;;28.52;15.73;;;;;;;-146.25;100.00;52153.28;2095432;28;20235;-71
2023/07/04 03:08:17;;;;;;;29.45;16.63;;;;;;;-146.25;100.00;52143.13;2095986;28;20037;-71
2023/07/04 03:09:23;;;;;;;33.63;18.40;;;;;;;-146.25;100.00;52118.81;2096186;28;20037;-71
2023/07/04 03:10:25;;;;;;;39.33;20.73;;;;;;;-146.25;100.00;52128.94;2104363;28;20052;-71
2023/07/04 03:11:28;;;;;;;43.85;23.50;;;;;;;-146.25;100.00;52120.84;2103842;28;20047;-70
2023/07/04 03:12:32;;;;;;;44.22;27.15;;;;;;;-146.25;100.00;52114.75;2104282;28;20048;-71
2023/07/04 03:13:38;;;;;;;50.80;29.23;;;;;;;-146.25;100.00;52163.41;2104099;28;20055;-71
2023/07/04 03:14:40;;;;;;;53.35;30.00;;;;;;;-146.25;100.00;52161.38;2104132;28;26429;-71
2023/07/04 03:15:44;;;;;;;55.10;30.67;;;;;;;-146.25;100.00;52133.00;2095552;28;20791;-71
2023/07/04 03:16:46;;;;;;;49.70;29.25;;;;;;;-146.25;100.00;52153.28;2095766;28;20107;-71
2023/07/04 03:17:49;;;;;;;56.83;31.85;;;;;;;-146.25;100.00;52139.09;2095639;28;20072;-71
2023/07/04 03:18:51;;;;;;;59.38;31.98;;;;;;;-146.25;100.00;52133.00;2104365;28;20188;-71
2023/07/04 03:19:53;;;;;;;62.15;33.67;;;;;;;-146.25;100.00;52135.03;2095668;28;20076;-71
2023/07/04 03:20:56;;;;;;;59.65;33.50;;;;;;;-146.25;100.00;52171.53;2096535;28;20834;-71
2023/07/04 03:21:58;;;;;;;54.97;31.40;;;;;;;-146.25;100.00;52139.09;2095142;28;28165;-71
2023/07/04 03:23:00;;;;;;;51.80;31.67;;;;;;;-146.25;100.00;52130.97;2095576;28;20041;-71
2023/07/04 03:24:06;;;;;;;59.38;29.80;;;;;;;-146.25;100.00;52124.91;2088001;28;20057;-71
2023/07/04 03:25:11;;;;;;;49.92;29.55;;;;;;;-146.25;100.00;52145.16;2088052;28;20898;-72
2023/07/04 03:26:15;;;;;;;49.20;28.67;;;;;;;-146.25;100.00;52149.22;2087832;28;20038;-71
2023/07/04 03:27:17;;;;;;;45.80;27.50;;;;;;;-146.25;100.00;52130.97;2095908;28;24823;-71
2023/07/04 03:28:19;;;;;;;48.65;27.80;;;;;;;-146.25;100.00;52141.13;2104124;28;20036;-72
2023/07/04 03:29:22;;;;;;;48.60;25.80;;;;;;;-146.25;100.00;52167.47;2104463;28;20045;-71
2023/07/04 03:30:25;;;;;;;43.72;25.40;;;;;;;-146.25;100.00;52139.09;2095450;28;20888;-71
2023/07/04 03:31:30;;;;;;;42.80;24.10;;;;;;;-146.25;100.00;52147.19;2095228;28;20259;-71
2023/07/04 03:32:33;;;;;;;45.60;24.50;;;;;;;-146.25;100.00;52212.06;2095016;28;20057;-71
2023/07/04 03:33:35;;;;;;;41.97;23.45;;;;;;;-146.25;100.00;52165.44;2095673;28;20087;-71
2023/07/04 03:34:37;;;;;;;40.78;23.05;;;;;;;-146.25;100.00;52149.22;2095849;28;20053;-72
2023/07/04 03:35:40;;;;;;;38.65;20.40;;;;;;;-146.25;100.00;52161.38;2095064;28;22194;-71
2023/07/04 03:36:58;;;;;;;35.08;17.98;;;;;;;-146.25;100.00;52149.22;2089268;28;20033;-71
2023/07/04 03:38:00;;;;;;;27.75;16.25;;;;;;;-146.25;100.00;52141.13;2097387;28;27207;-71
2023/07/04 03:39:03;;;;;;;27.67;16.02;;;;;;;-146.25;100.00;52120.84;2095515;28;26215;-71
2023/07/04 03:40:09;;;;;;;25.30;15.20;;;;;;;-146.25;100.00;52155.31;2096851;28;21007;-70
2023/07/04 03:41:11;;;;;;;32.88;15.63;;;;;;;-146.25;100.00;52155.31;2080995;28;20057;-68
2023/07/04 03:42:13;;;;;;;30.58;14.55;;;;;;;-146.25;100.00;52157.34;2080387;28;34242;-71
2023/07/04 03:43:15;;;;;;;26.38;13.20;;;;;;;-146.25;100.00;52177.59;2096333;28;27759;-71
2023/07/04 03:44:17;;;;;;;22.38;11.40;;;;;;;-146.25;100.00;52153.28;2096709;28;36324;-71
2023/07/04 03:45:18;;;;;;;26.67;12.80;;;;;;;-146.25;100.00;52143.13;2088600;28;20041;-71
2023/07/04 03:46:20;;;;;;;21.75;11.20;;;;;;;-146.25;100.00;52106.66;2097004;28;20095;-71
2023/07/04 03:47:22;;;;;;;20.35;10.40;;;;;;;-146.25;100.00;52141.13;2105019;28;29429;-71
2023/07/04 03:48:24;;;;;;;28.15;11.73;;;;;;;-146.25;100.00;52159.34;2098236;28;20798;-71
2023/07/04 03:49:27;;;;;;;20.98;10.48;;;;;;;-146.25;100.00;52128.94;2097111;28;20045;-71
2023/07/04 03:50:31;;;;;;;17.67;9.70;;;;;;;-146.25;100.00;52171.53;2089088;28;20058;-72
2023/07/04 03:51:32;;;;;;;21.77;9.80;;;;;;;-146.25;100.00;52133.00;2097104;28;20929;-72
2023/07/04 03:52:34;;;;;;;17.20;9.15;;;;;;;-146.25;100.00;52118.81;2097401;28;31877;-71
2023/07/04 03:53:37;;;;;;;23.60;9.43;;;;;;;-146.25;100.00;52183.69;2105571;28;20691;-73
2023/07/04 03:54:42;;;;;;;15.32;8.07;;;;;;;-146.25;100.00;52135.03;2096892;28;25903;-71
2023/07/04 03:55:47;;;;;;;20.02;8.98;;;;;;;-146.25;100.00;52139.09;2096721;28;32089;-71
2023/07/04 03:56:51;;;;;;;18.65;8.43;;;;;;;-146.25;100.00;52165.44;2096971;28;20890;-70
2023/07/04 03:57:55;;;;;;;20.20;8.45;;;;;;;-146.25;100.00;52149.22;2096970;28;20171;-71
2023/07/04 03:58:57;;;;;;;15.68;8.18;;;;;;;-146.25;100.00;52137.06;2097558;28;21093;-72
2023/07/04 03:59:59;;;;;;;17.33;8.38;;;;;;;-146.25;100.00;52145.16;2097325;28;21021;-71
2023/07/04 04:01:06;;;;;;;14.18;7.60;;;;;;;-146.25;100.00;52161.38;2096775;28;34725;-71
2023/07/04 04:02:07;;;;;;;14.32;7.43;;;;;;;-146.25;100.00;52179.63;2097233;28;36362;-71
2023/07/04 04:03:09;;;;;;;16.60;8.00;;;;;;;-146.25;100.00;52163.41;2096793;28;35641;-71
2023/07/04 04:04:11;;;;;;;15.35;7.20;;;;;;;-146.25;100.00;52145.16;2097396;28;35082;-71
2023/07/04 04:05:13;;;;;;;22.60;7.88;;;;;;;-146.25;100.00;52159.34;2097761;28;20037;-71
2023/07/04 04:06:15;;;;;;;17.35;7.32;;;;;;;-146.25;100.00;52159.34;2096679;28;36594;-71
2023/07/04 04:07:19;;;;;;;17.73;7.68;;;;;;;-146.25;100.00;52177.59;2096766;28;32697;-71
2023/07/04 04:08:21;;;;;;;15.88;7.70;;;;;;;-146.25;100.00;52199.91;2097271;28;35964;-71
2023/07/04 04:09:23;;;;;;;17.52;7.32;;;;;;;-146.25;100.00;52151.25;2096920;28;35714;-71
2023/07/04 04:10:25;;;;;;;23.95;7.82;;;;;;;-146.25;100.00;52126.91;2097022;28;20182;-72
2023/07/04 04:11:27;;;;;;;16.45;7.15;;;;;;;-146.25;100.00;52195.84;2096552;28;35929;-71
2023/07/04 04:12:30;;;;;;;17.70;7.28;;;;;;;-146.25;100.00;52143.13;2097158;28;34690;-71
2023/07/04 04:13:32;;;;;;;13.75;6.82;;;;;;;-146.25;100.00;52124.91;2097936;28;20045;-71
2023/07/04 04:14:37;;;;;;;16.08;7.50;;;;;;;-146.25;100.00;52165.44;2096937;28;36279;-71
2023/07/04 04:15:39;;;;;;;20.45;7.25;;;;;;;-146.25;100.00;52143.13;2097376;28;20045;-71
2023/07/04 04:16:41;;;;;;;20.13;7.22;;;;;;;-146.25;100.00;52151.25;2097603;28;31934;-71
2023/07/04 04:17:43;;;;;;;15.43;6.80;;;;;;;-146.25;100.00;52143.13;2097108;28;32595;-71
2023/07/04 04:18:47;;;;;;;17.23;6.97;;;;;;;-146.25;100.00;52187.75;2097161;28;33985;-71
2023/07/04 04:19:48;;;;;;;11.13;5.93;;;;;;;-146.25;100.00;52179.63;2096884;28;35753;-72
2023/07/04 04:20:53;;;;;;;18.00;6.72;;;;;;;-146.25;100.00;52173.56;2097976;28;20135;-71
2023/07/04 04:21:55;;;;;;;15.18;5.90;;;;;;;-146.25;100.00;52175.56;2096855;28;35595;-71
2023/07/04 04:22:57;;;;;;;16.58;6.03;;;;;;;-146.25;100.00;52171.53;2097218;28;32829;-71
2023/07/04 04:23:59;;;;;;;11.52;6.10;;;;;;;-146.25;100.00;52153.28;2097061;28;34334;-71
2023/07/04 04:25:00;;;;;;;12.77;6.00;;;;;;;-146.25;100.00;52177.59;2096640;28;36754;-71
2023/07/04 04:26:03;;;;;;;14.93;6.20;;;;;;;-146.25;100.00;52175.56;2097067;28;32362;-71
2023/07/04 04:27:08;;;;;;;12.85;6.28;;;;;;;-146.25;100.00;52161.38;2097111;28;27463;-71
2023/07/04 04:28:10;;;;;;;10.77;5.63;;;;;;;-146.25;100.00;52155.31;2097655;28;20807;-71
2023/07/04 04:29:19;;;;;;;11.75;5.95;;;;;;;-146.25;100.00;52165.44;2098011;28;20967;-71
2023/07/04 04:30:21;;;;;;;14.80;6.53;;;;;;;-146.25;100.00;52151.25;2097942;28;20037;-71
2023/07/04 04:31:25;;;;;;;17.02;5.55;;;;;;;-146.25;100.00;52175.56;2097358;28;20037;-71
2023/07/04 04:32:27;;;;;;;13.00;5.22;;;;;;;-146.25;100.00;52171.53;2096890;28;31849;-70
2023/07/04 04:33:29;;;;;;;10.98;4.88;;;;;;;-146.25;100.00;52092.44;2097174;28;37241;-71
2023/07/04 04:34:31;;;;;;;15.43;5.15;;;;;;;-146.25;100.00;52185.72;2105066;28;20516;-70
2023/07/04 04:35:38;;;;;;;11.85;5.45;;;;;;;-146.25;100.00;52171.53;2105274;28;20438;-71
2023/07/04 04:36:40;;;;;;;8.65;4.63;;;;;;;-146.25;100.00;52165.44;2104546;28;38242;-70
2023/07/04 04:37:42;;;;;;;12.13;5.10;;;;;;;-146.25;100.00;52173.56;2096529;28;33428;-71
2023/07/04 04:38:43;;;;;;;16.73;4.95;;;;;;;-146.25;100.00;52149.22;2096426;28;33228;-70
2023/07/04 04:39:45;;;;;;;14.90;4.53;;;;;;;-146.25;100.00;52155.31;2097278;28;39739;-71
2023/07/04 04:40:50;;;;;;;13.77;4.97;;;;;;;-146.25;100.00;52137.06;2096698;28;20045;-70
2023/07/04 04:41:53;;;;;;;10.32;4.68;;;;;;;-146.25;100.00;52191.81;2096816;28;33853;-70
2023/07/04 04:42:55;;;;;;;10.50;4.22;;;;;;;-146.25;100.00;52171.53;2104071;28;37593;-70
2023/07/04 04:44:01;;;;;;;10.88;4.20;;;;;;;-146.25;100.00;52189.78;2097244;28;29112;-71
2023/07/04 04:45:04;;;;;;;7.43;4.47;;;;;;;-146.25;100.00;52191.81;2096801;28;36459;-70
2023/07/04 04:46:06;;;;;;;7.50;3.80;;;;;;;-146.25;100.00;52143.13;2105074;28;23804;-71
2023/07/04 04:47:08;;;;;;;14.57;4.25;;;;;;;-146.25;100.00;52155.31;2104099;28;36712;-72
2023/07/04 04:48:09;;;;;;;11.65;3.75;;;;;;;-146.25;100.00;52185.72;2096859;28;37573;-72
2023/07/04 04:49:14;;;;;;;12.00;4.00;;;;;;;-146.25;100.00;52173.56;2096956;28;35238;-71